Kelliher, Canada
Current Conditions -  °F | °C
As of 3:00 AM on Sunday 26 Oct 2014 (Local Time) from CYQV Reporting Station
Broken Clouds Broken Clouds  
Wind Chill: 32°   Ceiling: 14000
Heat Index: 39°   Visibility: 9mi
Dew Point: 28°   Wind: 12mph
Humidity: 65%   Direction: 120°ESE
Pressure: 29.77"   Gusts: NA
Location:  51.27°N, 103.73°W
Report Text: CYQV 260900Z AUTO 12010KT 9SM BKN140 BKN170 04/M02 A2977 RMK SLP095
Loading
Personal Weather Stations






























Interactive Weather Map
Tropical Storm Tracking
New forecast layout! Learn more

10-Day Weather Forecast

Advertisements
Track Severe Weather on mobile